WetterOnline ( https://www.wetteronline.de )

Wetter aktuell Königswinter

Aktuelles Wetter: Königswinter-Heiderhof (147m)

6-stündlich | Neueste Meldungen
Ortszeit Temperatur Wetter
Mi, 01.02. 19:00 5.7° C leichter Regen
Mi, 01.02. 13:00 6.8° C bewölkt
Mi, 01.02. 7:00 5.0° C wolkenlos
Mi, 01.02. 1:00 5.4° C bedeckt
Di, 31.01. 19:00 5.9° C bedeckt
Di, 31.01. 13:00 6.4° C bedeckt
Di, 31.01. 7:00 2.4° C fast wolkenlos
Di, 31.01. 1:00 4.6° C bedeckt
Ortszeit Temperatur Wetter
Do, 02.02. 0:00 7.2° C bewölkt
Mi, 01.02. 23:40 7.2° C bewölkt
Mi, 01.02. 23:30 7.3° C bewölkt
Mi, 01.02. 23:20 7.3° C bewölkt
Mi, 01.02. 23:10 7.0° C bewölkt
Mi, 01.02. 23:00 7.2° C bedeckt
Mi, 01.02. 22:50 7.2° C bedeckt
Mi, 01.02. 22:30 7.0° C bedeckt
Mi, 01.02. 22:00 6.9° C bedeckt
Mi, 01.02. 21:30 6.8° C bewölkt
Mi, 01.02. 21:00 6.6° C bewölkt
Ortszeit Relative Feuchte Sichtweite
Mi, 01.02. 19:00 86% 14 km
Mi, 01.02. 13:00 70% 35 km
Mi, 01.02. 7:00 76% 30 km
Mi, 01.02. 1:00 90% 22 km
Di, 31.01. 19:00 92% 60 km
Di, 31.01. 13:00 75% 40 km
Di, 31.01. 7:00 84% 27 km
Di, 31.01. 1:00 79% 27 km
Ortszeit Relative Feuchte Sichtweite
Do, 02.02. 0:00 78% 30 km
Mi, 01.02. 23:40 78% -
Mi, 01.02. 23:30 77% 30 km
Mi, 01.02. 23:20 77% -
Mi, 01.02. 23:10 78% -
Mi, 01.02. 23:00 77% 35 km
Mi, 01.02. 22:50 77% -
Mi, 01.02. 22:30 77% 35 km
Mi, 01.02. 22:00 77% 30 km
Mi, 01.02. 21:30 77% 30 km
Mi, 01.02. 21:00 78% 35 km
Ortszeit Niederschlagsmenge Niederschlagsart
Mi, 01.02. 19:00 0.9 l/m2 in 12 Std. Regen
Mi, 01.02. 13:00 0.0 l/m2 in 6 Std. -
Mi, 01.02. 7:00 1 l/m2 in 12 Std. -
Mi, 01.02. 1:00 1 l/m2 in 6 Std. Regen
Di, 31.01. 19:00 1 l/m2 in 12 Std. Regen
Di, 31.01. 13:00 0.1 l/m2 in 6 Std. Regen
Di, 31.01. 7:00 0.1 l/m2 in 12 Std. -
Di, 31.01. 1:00 0.1 l/m2 in 6 Std. Regen
Ortszeit Niederschlagsmenge Niederschlagsart
Do, 02.02. 0:00 0.0 l/m2 in 1 Std. -
Mi, 01.02. 23:40 keine Meldung -
Mi, 01.02. 23:30 0.0 l/m2 in 30 Min -
Mi, 01.02. 23:20 keine Meldung -
Mi, 01.02. 23:10 keine Meldung -
Mi, 01.02. 23:00 0.0 l/m2 in 1 Std. -
Mi, 01.02. 22:50 keine Meldung -
Mi, 01.02. 22:30 0.0 l/m2 in 30 Min -
Mi, 01.02. 22:00 0.0 l/m2 in 1 Std. Regen
Mi, 01.02. 21:30 0.0 l/m2 in 30 Min -
Mi, 01.02. 21:00 <0.05 l/m2 in 1 Std. Regen
Ortszeit Stärke Spitze Richtung
km/h Bft. km/h Grad Sektor
Mi, 01.02. 19:00 28 4 57 250° W
Mi, 01.02. 13:00 28 4 50 260° W
Mi, 01.02. 7:00 24 4 44 260° W
Mi, 01.02. 1:00 17 3 37 220° SW
Di, 31.01. 19:00 18 3 47 260° W
Di, 31.01. 13:00 30 5 44 240° SW
Di, 31.01. 7:00 20 4 31 200° S
Di, 31.01. 1:00 14 3 40 260° W
Ortszeit Stärke Spitze Richtung
km/h Bft. km/h Grad Sektor
Do, 02.02. 0:00 22 4 47 270° W
Mi, 01.02. 23:40 24 4 - 280° W
Mi, 01.02. 23:30 22 4 46 280° W
Mi, 01.02. 23:20 22 4 - 280° W
Mi, 01.02. 23:10 22 4 - 270° W
Mi, 01.02. 23:00 24 4 54 270° W
Mi, 01.02. 22:50 24 4 - 270° W
Mi, 01.02. 22:30 29 5 50 270° W
Mi, 01.02. 22:00 28 4 46 270° W
Mi, 01.02. 21:30 29 5 47 260° W
Mi, 01.02. 21:00 28 4 46 260° W
Ortszeit Untergrenze Bedeckung Gattung
total tief tief mittel hoch
Mi, 01.02. 19:00 750 m 8/8 8/8 - - -
Mi, 01.02. 13:00 780 m 8/8 7/8 - - -
Mi, 01.02. 7:00 - 0/8 0/8 - - -
Mi, 01.02. 1:00 1500 m 8/8 8/8 - - -
Di, 31.01. 19:00 270 m 8/8 8/8 - - -
Di, 31.01. 13:00 840 m 8/8 8/8 - - -
Di, 31.01. 7:00 1020 m 1/8 1/8 - - -
Di, 31.01. 1:00 750 m 8/8 8/8 - - -
Ortszeit Bedeckungsgrad in Achtel und Wolkenuntergrenze
Do, 02.02. 0:00 7(540m)
Mi, 01.02. 23:40 7
Mi, 01.02. 23:30 7(540m)
Mi, 01.02. 23:20 7(540m)
Mi, 01.02. 23:10 7
Mi, 01.02. 23:00 7(570m) 8(750m)
Mi, 01.02. 22:50 7(570m) 8(750m)
Mi, 01.02. 22:30 7(660m) 8(1050m) 8(1440m)
Mi, 01.02. 22:00 5(660m) 6(1440m) 8(1500m)
Mi, 01.02. 21:30 1(750m) 7(1500m)
Mi, 01.02. 21:00 2(840m) 7(1800m) 8(3000m)
Ortszeit Luftdruck NN (hPa) Tendenz (hPa in 3 Std.)
Mi, 01.02. 19:00 1021 + 1,0
Mi, 01.02. 13:00 1021 - 0,6
Mi, 01.02. 7:00 1021 - 0,5
Mi, 01.02. 1:00 1022 - 1,0
Di, 31.01. 19:00 1023 + 0,9
Di, 31.01. 13:00 1022 - 2,4
Di, 31.01. 7:00 1025 - 0,5
Di, 31.01. 1:00 1026 + 1,2
Ortszeit Luftdruck NN (hPa) Tendenz (hPa in 3 Std.)
Do, 02.02. 0:00 1022 + 0,7
Mi, 01.02. 23:40 1022 keine Meldung
Mi, 01.02. 23:30 1021 + 0,3
Mi, 01.02. 23:20 1021 keine Meldung
Mi, 01.02. 23:10 1021 keine Meldung
Mi, 01.02. 23:00 1021 + 0,2
Mi, 01.02. 22:50 1021 keine Meldung
Mi, 01.02. 22:30 1021 0,0
Mi, 01.02. 22:00 1021 0,0
Mi, 01.02. 21:30 1021 0,0
Mi, 01.02. 21:00 1021 + 0,1
Ortszeit Schneehöhe (cm)
Mi, 01.02. 19:00 0
Mi, 01.02. 13:00 0
Mi, 01.02. 7:00 0
Mi, 01.02. 1:00 0
Di, 31.01. 19:00 0
Di, 31.01. 13:00 0
Di, 31.01. 7:00 0
Di, 31.01. 1:00 0
Ortszeit Schneehöhe (cm)
Do, 02.02. 0:00 0
Mi, 01.02. 23:40 0
Mi, 01.02. 23:30 0
Mi, 01.02. 23:20 0
Mi, 01.02. 23:10 0
Mi, 01.02. 23:00 0
Mi, 01.02. 22:50 0
Mi, 01.02. 22:30 0
Mi, 01.02. 22:00 0
Mi, 01.02. 21:30 0
Mi, 01.02. 21:00 0
Link zu dieser Seite / Seite empfehlen

Das Wetter in ...